Time;durP1;ratioP1;P1;durP2;ratioP2;P2;SDS_P1;SDS_P2;PMS_P1;PMS_P2;Temp;Humidity;BMP_temperature;BMP_pressure;BME280_temperature;BME280_humidity;BME280_pressure;Samples;Min_cycle;Max_cycle;Signal;HPM_P1;HPM_P2
2023/10/28 00:02:14;;;;;;;;;;;;;;;;;;5151024;27;20422;-45
2023/10/28 00:04:40;;;;;;;;;;;;;;;;;;5150998;27;19934;-45
2023/10/28 00:07:05;;;;;;;;;;;;;;;;;;5150819;27;20385;-48
2023/10/28 00:09:31;;;;;;;;;;;;;;;;;;5150794;27;19962;-45
2023/10/28 00:11:56;;;;;;;;;;;;;;;;;;5150858;27;20002;-44
2023/10/28 00:14:23;;;;;;;;;;;;;;;;;;5150332;27;20023;-47
2023/10/28 00:16:49;;;;;;;;;;;;;;;;;;5131407;27;20022;-45
2023/10/28 00:19:16;;;;;;;;;;;;;;;;;;5138983;27;20379;-45
2023/10/28 00:21:41;;;;;;;;;;;;;;;;;;5150711;27;20024;-44
2023/10/28 00:24:06;;;;;;;;;;;;;;;;;;5148900;27;20329;-45
2023/10/28 00:26:32;;;;;;;;;;;;;;;;;;5130547;27;20018;-46
2023/10/28 00:28:58;;;;;;;;;;;;;;;;;;5146028;27;19995;-44
2023/10/28 00:31:24;;;;;;;;;;;;;;;;;;5150197;27;19930;-46
2023/10/28 00:33:49;;;;;;;;;;;;;;;;;;5149680;27;19923;-44
2023/10/28 00:36:15;;;;;;;;;;;;;;;;;;5149892;27;19951;-45
2023/10/28 00:38:40;;;;;;;;;;;;;;;;;;5143247;27;19923;-46
2023/10/28 00:41:06;;;;;;;;;;;;;;;;;;5150159;27;20382;-44
2023/10/28 00:43:32;;;;;;;;;;;;;;;;;;5170411;27;19969;-46
2023/10/28 00:45:59;;;;;;;;;;;;;;;;;;5170870;27;20397;-46
2023/10/28 00:48:24;;;;;;;;;;;;;;;;;;5163917;27;19923;-43
2023/10/28 00:50:50;;;;;;;;;;;;;;;;;;5149991;27;19966;-47
2023/10/28 00:53:17;;;;;;;;;;;;;;;;;;5150356;27;20040;-45
2023/10/28 00:55:42;;;;;;;;;;;;;;;;;;5150190;27;20021;-45
2023/10/28 00:58:07;;;;;;;;;;;;;;;;;;5149457;27;19949;-45
2023/10/28 01:00:33;;;;;;;;;;;;;;;;;;5149957;27;20013;-46
2023/10/28 01:02:58;;;;;;;;;;;;;;;;;;5150304;27;19980;-45
2023/10/28 01:05:24;;;;;;;;;;;;;;;;;;5150134;27;20021;-44
2023/10/28 01:07:49;;;;;;;;;;;;;;;;;;5149182;27;20017;-44
2023/10/28 01:10:16;;;;;;;;;;;;;;;;;;5149828;27;19977;-45
2023/10/28 01:12:42;;;;;;;;;;;;;;;;;;5149168;27;19974;-46
2023/10/28 01:15:08;;;;;;;;;;;;;;;;;;5144578;27;19966;-47
2023/10/28 01:17:34;;;;;;;;;;;;;;;;;;5128838;28;19941;-45
2023/10/28 01:19:59;;;;;;;;;;;;;;;;;;5141705;27;20355;-45
2023/10/28 01:22:25;;;;;;;;;;;;;;;;;;5150283;27;19930;-45
2023/10/28 01:24:50;;;;;;;;;;;;;;;;;;5149226;27;19931;-47
2023/10/28 01:27:16;;;;;;;;;;;;;;;;;;5155629;27;20060;-45
2023/10/28 01:29:41;;;;;;;;;;;;;;;;;;5150554;27;19927;-45
2023/10/28 01:32:07;;;;;;;;;;;;;;;;;;5148946;27;19926;-45
2023/10/28 01:34:33;;;;;;;;;;;;;;;;;;5147958;27;19927;-45
2023/10/28 01:36:59;;;;;;;;;;;;;;;;;;5148898;27;20360;-46
2023/10/28 01:39:24;;;;;;;;;;;;;;;;;;5138940;27;20379;-45
2023/10/28 01:41:50;;;;;;;;;;;;;;;;;;5149476;27;19927;-45
2023/10/28 01:44:16;;;;;;;;;;;;;;;;;;5148895;27;19926;-45
2023/10/28 01:46:42;;;;;;;;;;;;;;;;;;5149404;27;19966;-45
2023/10/28 01:49:07;;;;;;;;;;;;;;;;;;5148807;27;19944;-47
2023/10/28 01:51:32;;;;;;;;;;;;;;;;;;5148803;27;20587;-45
2023/10/28 01:53:58;;;;;;;;;;;;;;;;;;5149731;27;20451;-45
2023/10/28 01:56:23;;;;;;;;;;;;;;;;;;5148866;27;20060;-45
2023/10/28 01:58:49;;;;;;;;;;;;;;;;;;5148299;27;20011;-48
2023/10/28 02:01:14;;;;;;;;;;;;;;;;;;5149190;27;19989;-44
2023/10/28 02:03:40;;;;;;;;;;;;;;;;;;5149258;27;20041;-46
2023/10/28 02:06:05;;;;;;;;;;;;;;;;;;5148626;27;20014;-46
2023/10/28 02:08:30;;;;;;;;;;;;;;;;;;5148998;27;20321;-47
2023/10/28 02:10:56;;;;;;;;;;;;;;;;;;5148623;27;19988;-45
2023/10/28 02:13:22;;;;;;;;;;;;;;;;;;5148163;27;20002;-44
2023/10/28 02:15:47;;;;;;;;;;;;;;;;;;5149099;27;20201;-45
2023/10/28 02:18:13;;;;;;;;;;;;;;;;;;5148506;27;20009;-44
2023/10/28 02:20:39;;;;;;;;;;;;;;;;;;5148760;27;20371;-45
2023/10/28 02:23:04;;;;;;;;;;;;;;;;;;5148280;27;19969;-45
2023/10/28 02:25:30;;;;;;;;;;;;;;;;;;5135410;27;19923;-46
2023/10/28 02:27:56;;;;;;;;;;;;;;;;;;5137288;27;20037;-46
2023/10/28 02:30:21;;;;;;;;;;;;;;;;;;5141945;27;19974;-44
2023/10/28 02:32:47;;;;;;;;;;;;;;;;;;5148224;27;20053;-45
2023/10/28 02:35:13;;;;;;;;;;;;;;;;;;5148390;27;20019;-46
2023/10/28 02:37:39;;;;;;;;;;;;;;;;;;5147449;27;20423;-46
2023/10/28 02:40:04;;;;;;;;;;;;;;;;;;5147580;27;20423;-45
2023/10/28 02:42:30;;;;;;;;;;;;;;;;;;5148617;27;19929;-45
2023/10/28 02:44:55;;;;;;;;;;;;;;;;;;5148678;27;19923;-46
2023/10/28 02:47:22;;;;;;;;;;;;;;;;;;5151025;27;20349;-44
2023/10/28 02:49:48;;;;;;;;;;;;;;;;;;5152048;27;20269;-45
2023/10/28 02:52:13;;;;;;;;;;;;;;;;;;5152279;27;20696;-47
2023/10/28 02:54:39;;;;;;;;;;;;;;;;;;5152456;27;20021;-45
2023/10/28 02:57:04;;;;;;;;;;;;;;;;;;5151325;27;19977;-48
2023/10/28 02:59:30;;;;;;;;;;;;;;;;;;5151061;27;19923;-47
2023/10/28 03:01:55;;;;;;;;;;;;;;;;;;5146136;27;20053;-44
2023/10/28 03:04:21;;;;;;;;;;;;;;;;;;5130705;28;19927;-45
2023/10/28 03:06:46;;;;;;;;;;;;;;;;;;5131279;28;19981;-46
2023/10/28 03:09:12;;;;;;;;;;;;;;;;;;5133696;27;20014;-46
2023/10/28 03:11:37;;;;;;;;;;;;;;;;;;5151555;27;19966;-46
2023/10/28 03:14:03;;;;;;;;;;;;;;;;;;5151913;27;19948;-46
2023/10/28 03:16:28;;;;;;;;;;;;;;;;;;5151382;27;20040;-45
2023/10/28 03:18:54;;;;;;;;;;;;;;;;;;5151475;27;20498;-44
2023/10/28 03:21:19;;;;;;;;;;;;;;;;;;5151640;27;20388;-45
2023/10/28 03:23:45;;;;;;;;;;;;;;;;;;5151077;27;19957;-46
2023/10/28 03:26:10;;;;;;;;;;;;;;;;;;5151056;27;20010;-46
2023/10/28 03:28:36;;;;;;;;;;;;;;;;;;5158570;27;20437;-46
2023/10/28 03:31:01;;;;;;;;;;;;;;;;;;5150703;27;20010;-46
2023/10/28 03:33:27;;;;;;;;;;;;;;;;;;5150747;27;20089;-45
2023/10/28 03:35:53;;;;;;;;;;;;;;;;;;5151157;27;19961;-46
2023/10/28 03:38:18;;;;;;;;;;;;;;;;;;5144128;27;20055;-47
2023/10/28 03:40:43;;;;;;;;;;;;;;;;;;5144872;27;20010;-46
2023/10/28 03:43:10;;;;;;;;;;;;;;;;;;5133583;27;19927;-45
2023/10/28 03:45:37;;;;;;;;;;;;;;;;;;5130743;28;19997;-44
2023/10/28 03:48:03;;;;;;;;;;;;;;;;;;5134021;27;19923;-47
2023/10/28 03:50:28;;;;;;;;;;;;;;;;;;5151189;27;20041;-45
2023/10/28 03:52:54;;;;;;;;;;;;;;;;;;5145488;27;19941;-45
2023/10/28 03:55:19;;;;;;;;;;;;;;;;;;5130591;28;20320;-45
2023/10/28 03:57:45;;;;;;;;;;;;;;;;;;5128617;27;20022;-46
2023/10/28 04:00:11;;;;;;;;;;;;;;;;;;5139486;27;19970;-47
2023/10/28 04:02:36;;;;;;;;;;;;;;;;;;5150050;27;20178;-45
2023/10/28 04:05:02;;;;;;;;;;;;;;;;;;5151375;27;20001;-45
2023/10/28 04:07:27;;;;;;;;;;;;;;;;;;5150573;27;20075;-48
2023/10/28 04:09:53;;;;;;;;;;;;;;;;;;5136975;27;20334;-45
2023/10/28 04:12:18;;;;;;;;;;;;;;;;;;5150436;27;20014;-47
2023/10/28 04:14:44;;;;;;;;;;;;;;;;;;5150570;27;20047;-47
2023/10/28 04:17:09;;;;;;;;;;;;;;;;;;5150663;27;19926;-45
2023/10/28 04:19:35;;;;;;;;;;;;;;;;;;5150265;27;20022;-46
2023/10/28 04:22:00;;;;;;;;;;;;;;;;;;5151027;27;20340;-44
2023/10/28 04:24:26;;;;;;;;;;;;;;;;;;5150546;27;19953;-46
2023/10/28 04:26:51;;;;;;;;;;;;;;;;;;5150777;27;20010;-45
2023/10/28 04:29:17;;;;;;;;;;;;;;;;;;5137392;27;20019;-45
2023/10/28 04:31:42;;;;;;;;;;;;;;;;;;5150448;27;20313;-46
2023/10/28 04:34:09;;;;;;;;;;;;;;;;;;5149962;27;19923;-48
2023/10/28 04:36:34;;;;;;;;;;;;;;;;;;5150336;27;19934;-46
2023/10/28 04:39:00;;;;;;;;;;;;;;;;;;5149240;27;20379;-45
2023/10/28 04:41:25;;;;;;;;;;;;;;;;;;5149768;27;20413;-45
2023/10/28 04:43:51;;;;;;;;;;;;;;;;;;5149554;27;19959;-44
2023/10/28 04:46:16;;;;;;;;;;;;;;;;;;5150462;27;19930;-46
2023/10/28 04:48:43;;;;;;;;;;;;;;;;;;5149336;27;20417;-47
2023/10/28 04:51:08;;;;;;;;;;;;;;;;;;5149717;27;19927;-47
2023/10/28 04:53:34;;;;;;;;;;;;;;;;;;5139372;27;19950;-47
2023/10/28 04:56:00;;;;;;;;;;;;;;;;;;5129332;28;19952;-45
2023/10/28 04:58:26;;;;;;;;;;;;;;;;;;5129038;27;20252;-46
2023/10/28 05:00:52;;;;;;;;;;;;;;;;;;5142526;27;19970;-47
2023/10/28 05:03:17;;;;;;;;;;;;;;;;;;5150003;27;19929;-44
2023/10/28 05:05:46;;;;;;;;;;;;;;;;;;5149793;27;20290;-44
2023/10/28 05:08:11;;;;;;;;;;;;;;;;;;5144214;27;19959;-47
2023/10/28 05:10:37;;;;;;;;;;;;;;;;;;5139795;27;20423;-44
2023/10/28 05:13:03;;;;;;;;;;;;;;;;;;5150244;27;20389;-46
2023/10/28 05:15:29;;;;;;;;;;;;;;;;;;5150182;27;20011;-46
2023/10/28 05:17:55;;;;;;;;;;;;;;;;;;5148907;27;21279;-44
2023/10/28 05:20:21;;;;;;;;;;;;;;;;;;5149679;27;19927;-44
2023/10/28 05:22:46;;;;;;;;;;;;;;;;;;5150084;27;19927;-44
2023/10/28 05:25:12;;;;;;;;;;;;;;;;;;5149797;27;19923;-47
2023/10/28 05:27:38;;;;;;;;;;;;;;;;;;5149452;27;19974;-47
2023/10/28 05:30:03;;;;;;;;;;;;;;;;;;5134426;27;19967;-48
2023/10/28 05:32:30;;;;;;;;;;;;;;;;;;5149287;27;20100;-48
2023/10/28 05:34:56;;;;;;;;;;;;;;;;;;5149599;27;19938;-46
2023/10/28 05:37:21;;;;;;;;;;;;;;;;;;5148806;27;19934;-44
2023/10/28 05:39:46;;;;;;;;;;;;;;;;;;5148219;27;19974;-45
2023/10/28 05:42:14;;;;;;;;;;;;;;;;;;5148628;27;19933;-46
2023/10/28 05:44:39;;;;;;;;;;;;;;;;;;5149199;27;19938;-44
2023/10/28 05:47:05;;;;;;;;;;;;;;;;;;5148976;27;19923;-44
2023/10/28 05:49:33;;;;;;;;;;;;;;;;;;5148322;27;19934;-45
2023/10/28 05:51:58;;;;;;;;;;;;;;;;;;5149439;27;19970;-46
2023/10/28 05:54:24;;;;;;;;;;;;;;;;;;5131096;27;20022;-45
2023/10/28 05:56:49;;;;;;;;;;;;;;;;;;5128563;28;20056;-45
2023/10/28 05:59:15;;;;;;;;;;;;;;;;;;5128064;27;20080;-46
2023/10/28 06:01:41;;;;;;;;;;;;;;;;;;5145821;27;19950;-45
2023/10/28 06:04:06;;;;;;;;;;;;;;;;;;5149524;27;20306;-44
2023/10/28 06:06:32;;;;;;;;;;;;;;;;;;5149088;27;19923;-48
2023/10/28 06:08:57;;;;;;;;;;;;;;;;;;5137242;27;20085;-44
2023/10/28 06:11:23;;;;;;;;;;;;;;;;;;5142462;27;19981;-48
2023/10/28 06:13:48;;;;;;;;;;;;;;;;;;5147434;27;19977;-45
2023/10/28 06:16:13;;;;;;;;;;;;;;;;;;5148888;27;20392;-47
2023/10/28 06:18:39;;;;;;;;;;;;;;;;;;5148716;27;20394;-45
2023/10/28 06:21:04;;;;;;;;;;;;;;;;;;5146860;27;19970;-45
2023/10/28 06:23:30;;;;;;;;;;;;;;;;;;5148868;27;20470;-47
2023/10/28 06:25:55;;;;;;;;;;;;;;;;;;5130671;27;20428;-45
2023/10/28 06:28:21;;;;;;;;;;;;;;;;;;5127455;27;20067;-45
2023/10/28 06:30:47;;;;;;;;;;;;;;;;;;5146427;27;20019;-46
2023/10/28 06:33:13;;;;;;;;;;;;;;;;;;5148882;27;19950;-44
2023/10/28 06:35:38;;;;;;;;;;;;;;;;;;5147480;27;20013;-44
2023/10/28 06:38:04;;;;;;;;;;;;;;;;;;5147364;27;20455;-48
2023/10/28 06:40:29;;;;;;;;;;;;;;;;;;5143397;27;20319;-45
2023/10/28 06:42:56;;;;;;;;;;;;;;;;;;5147114;27;20284;-45
2023/10/28 06:45:22;;;;;;;;;;;;;;;;;;5148573;27;20001;-44
2023/10/28 06:47:47;;;;;;;;;;;;;;;;;;5145627;27;20219;-47
2023/10/28 06:50:13;;;;;;;;;;;;;;;;;;5144526;27;20030;-45
2023/10/28 06:52:39;;;;;;;;;;;;;;;;;;5147344;27;20339;-45
2023/10/28 06:55:05;;;;;;;;;;;;;;;;;;5144378;27;20435;-45
2023/10/28 06:57:30;;;;;;;;;;;;;;;;;;5145823;27;20423;-46
2023/10/28 06:59:56;;;;;;;;;;;;;;;;;;5143207;27;19966;-47
2023/10/28 07:02:21;;;;;;;;;;;;;;;;;;5142862;27;19934;-46
2023/10/28 07:04:47;;;;;;;;;;;;;;;;;;5126790;27;20200;-46
2023/10/28 07:07:14;;;;;;;;;;;;;;;;;;5139401;27;19988;-45
2023/10/28 07:09:39;;;;;;;;;;;;;;;;;;5140031;27;19962;-46
2023/10/28 07:12:05;;;;;;;;;;;;;;;;;;5137511;27;19931;-46
2023/10/28 07:14:30;;;;;;;;;;;;;;;;;;5139751;27;20276;-44
2023/10/28 07:16:55;;;;;;;;;;;;;;;;;;5144683;27;19930;-45
2023/10/28 07:19:21;;;;;;;;;;;;;;;;;;5142643;27;20018;-44
2023/10/28 07:21:46;;;;;;;;;;;;;;;;;;5146364;27;20139;-45
2023/10/28 07:24:12;;;;;;;;;;;;;;;;;;5139271;27;20010;-47
2023/10/28 07:26:38;;;;;;;;;;;;;;;;;;5136208;27;19923;-47
2023/10/28 07:29:06;;;;;;;;;;;;;;;;;;5126930;27;20790;-46
2023/10/28 07:31:31;;;;;;;;;;;;;;;;;;5134101;27;19923;-43
2023/10/28 07:33:57;;;;;;;;;;;;;;;;;;5135054;27;19949;-46
2023/10/28 07:36:22;;;;;;;;;;;;;;;;;;5141235;27;19923;-46
2023/10/28 07:38:48;;;;;;;;;;;;;;;;;;5134572;27;20516;-45
2023/10/28 07:41:14;;;;;;;;;;;;;;;;;;5141436;27;19984;-45
2023/10/28 07:43:39;;;;;;;;;;;;;;;;;;5139565;27;19931;-45
2023/10/28 07:46:04;;;;;;;;;;;;;;;;;;5136800;27;20411;-44
2023/10/28 07:48:30;;;;;;;;;;;;;;;;;;5137346;27;20329;-43
2023/10/28 07:50:55;;;;;;;;;;;;;;;;;;5137557;27;20273;-44
2023/10/28 07:53:21;;;;;;;;;;;;;;;;;;5142340;27;19927;-45
2023/10/28 07:55:47;;;;;;;;;;;;;;;;;;5145135;27;20068;-45
2023/10/28 07:58:12;;;;;;;;;;;;;;;;;;5145493;27;20033;-48
2023/10/28 08:00:38;;;;;;;;;;;;;;;;;;5139319;27;19949;-45
2023/10/28 08:03:03;;;;;;;;;;;;;;;;;;5140296;27;19923;-45
2023/10/28 08:05:29;;;;;;;;;;;;;;;;;;5137774;27;19965;-44
2023/10/28 08:07:54;;;;;;;;;;;;;;;;;;5141440;27;19930;-45
2023/10/28 08:10:22;;;;;;;;;;;;;;;;;;5140626;27;19966;-44
2023/10/28 08:12:47;;;;;;;;;;;;;;;;;;5143316;27;19992;-44
2023/10/28 08:15:13;;;;;;;;;;;;;;;;;;5140226;27;20108;-44
2023/10/28 08:17:39;;;;;;;;;;;;;;;;;;5140157;27;19931;-44
2023/10/28 08:20:04;;;;;;;;;;;;;;;;;;5146775;27;19927;-43
2023/10/28 08:22:30;;;;;;;;;;;;;;;;;;5144989;27;20002;-46
2023/10/28 08:24:56;;;;;;;;;;;;;;;;;;5147167;27;19943;-44
2023/10/28 08:27:22;;;;;;;;;;;;;;;;;;5142959;27;19957;-47
2023/10/28 08:29:48;;;;;;;;;;;;;;;;;;5137945;27;19945;-44
2023/10/28 08:32:17;;;;;;;;;;;;;;;;;;5127807;27;20030;-46
2023/10/28 08:34:43;;;;;;;;;;;;;;;;;;5123579;27;20363;-43
2023/10/28 08:37:08;;;;;;;;;;;;;;;;;;5126827;27;19984;-45
2023/10/28 08:39:34;;;;;;;;;;;;;;;;;;5128275;27;19932;-46
2023/10/28 08:41:59;;;;;;;;;;;;;;;;;;5125959;27;19935;-44
2023/10/28 08:44:28;;;;;;;;;;;;;;;;;;5126547;27;19945;-44
2023/10/28 08:46:54;;;;;;;;;;;;;;;;;;5127819;27;19927;-45
2023/10/28 08:49:19;;;;;;;;;;;;;;;;;;5126613;27;19960;-45
2023/10/28 08:51:46;;;;;;;;;;;;;;;;;;5127366;27;19938;-45
2023/10/28 08:54:12;;;;;;;;;;;;;;;;;;5127333;27;20002;-48
2023/10/28 08:56:38;;;;;;;;;;;;;;;;;;5128041;27;20094;-45
2023/10/28 08:59:04;;;;;;;;;;;;;;;;;;5128124;27;19927;-44
2023/10/28 09:01:29;;;;;;;;;;;;;;;;;;5127644;27;19965;-50
2023/10/28 09:03:55;;;;;;;;;;;;;;;;;;5130147;27;20438;-44
2023/10/28 09:06:20;;;;;;;;;;;;;;;;;;5126965;27;19933;-45
2023/10/28 09:08:46;;;;;;;;;;;;;;;;;;5126295;27;20022;-45
2023/10/28 09:11:12;;;;;;;;;;;;;;;;;;5125531;27;19934;-46
2023/10/28 09:13:38;;;;;;;;;;;;;;;;;;5128690;27;20022;-45
2023/10/28 09:16:04;;;;;;;;;;;;;;;;;;5126145;27;20130;-46
2023/10/28 09:18:29;;;;;;;;;;;;;;;;;;5127567;27;19931;-45
2023/10/28 09:20:55;;;;;;;;;;;;;;;;;;5125103;27;20902;-45
2023/10/28 09:23:20;;;;;;;;;;;;;;;;;;5125247;27;19935;-43
2023/10/28 09:25:46;;;;;;;;;;;;;;;;;;5128164;27;19927;-44
2023/10/28 09:28:12;;;;;;;;;;;;;;;;;;5127445;27;19931;-44
2023/10/28 09:30:37;;;;;;;;;;;;;;;;;;5126828;27;19991;-45
2023/10/28 09:33:03;;;;;;;;;;;;;;;;;;5123744;27;20552;-43
2023/10/28 09:35:28;;;;;;;;;;;;;;;;;;5128651;27;19945;-44
2023/10/28 09:37:55;;;;;;;;;;;;;;;;;;5128606;27;19931;-45
2023/10/28 09:40:21;;;;;;;;;;;;;;;;;;5129764;27;20547;-45
2023/10/28 09:42:48;;;;;;;;;;;;;;;;;;5126162;27;20144;-44
2023/10/28 09:45:16;;;;;;;;;;;;;;;;;;5129611;27;20029;-46
2023/10/28 09:47:41;;;;;;;;;;;;;;;;;;5126539;27;19934;-44
2023/10/28 09:50:07;;;;;;;;;;;;;;;;;;5122109;27;19938;-45
2023/10/28 09:52:33;;;;;;;;;;;;;;;;;;5128514;27;19927;-46
2023/10/28 09:54:59;;;;;;;;;;;;;;;;;;5130097;27;19997;-44
2023/10/28 09:57:24;;;;;;;;;;;;;;;;;;5128298;27;20017;-45
2023/10/28 09:59:49;;;;;;;;;;;;;;;;;;5125620;27;19957;-44
2023/10/28 10:02:15;;;;;;;;;;;;;;;;;;5124968;27;20471;-44
2023/10/28 10:04:40;;;;;;;;;;;;;;;;;;5126916;27;19953;-43
2023/10/28 10:07:06;;;;;;;;;;;;;;;;;;5126104;27;20005;-45
2023/10/28 10:09:31;;;;;;;;;;;;;;;;;;5126003;27;19933;-44
2023/10/28 10:11:57;;;;;;;;;;;;;;;;;;5126629;27;20017;-45
2023/10/28 10:14:24;;;;;;;;;;;;;;;;;;5130110;27;19953;-44
2023/10/28 10:16:49;;;;;;;;;;;;;;;;;;5129213;27;19938;-43
2023/10/28 10:19:16;;;;;;;;;;;;;;;;;;5131159;27;19941;-44
2023/10/28 10:21:42;;;;;;;;;;;;;;;;;;5126067;27;19979;-45
2023/10/28 10:24:07;;;;;;;;;;;;;;;;;;5129880;27;20005;-45
2023/10/28 10:26:33;;;;;;;;;;;;;;;;;;5128943;27;19931;-44
2023/10/28 10:28:58;;;;;;;;;;;;;;;;;;5126706;27;19931;-45
2023/10/28 10:31:24;;;;;;;;;;;;;;;;;;5128131;27;20385;-44
2023/10/28 10:33:49;;;;;;;;;;;;;;;;;;5130305;27;19931;-45
2023/10/28 10:36:14;;;;;;;;;;;;;;;;;;5125610;27;20472;-44
2023/10/28 10:38:40;;;;;;;;;;;;;;;;;;5126431;27;19941;-45
2023/10/28 10:41:05;;;;;;;;;;;;;;;;;;5131599;27;19931;-46
2023/10/28 10:43:31;;;;;;;;;;;;;;;;;;5132700;27;19985;-43
2023/10/28 10:45:57;;;;;;;;;;;;;;;;;;5128687;27;19927;-44
2023/10/28 10:48:23;;;;;;;;;;;;;;;;;;5128394;27;20990;-44
2023/10/28 10:50:49;;;;;;;;;;;;;;;;;;5125962;27;19949;-46
2023/10/28 10:53:15;;;;;;;;;;;;;;;;;;5128540;27;20402;-48
2023/10/28 10:55:40;;;;;;;;;;;;;;;;;;5130433;27;19923;-45
2023/10/28 10:58:06;;;;;;;;;;;;;;;;;;5127115;27;20356;-44
2023/10/28 11:00:32;;;;;;;;;;;;;;;;;;5124970;27;19934;-44
2023/10/28 11:02:59;;;;;;;;;;;;;;;;;;5124282;27;20455;-45
2023/10/28 11:05:24;;;;;;;;;;;;;;;;;;5127361;27;20368;-45
2023/10/28 11:07:50;;;;;;;;;;;;;;;;;;5129616;27;20408;-44
2023/10/28 11:10:15;;;;;;;;;;;;;;;;;;5130485;27;19927;-44
2023/10/28 11:12:41;;;;;;;;;;;;;;;;;;5131059;27;19936;-44
2023/10/28 11:15:07;;;;;;;;;;;;;;;;;;5131611;27;20657;-44
2023/10/28 11:17:32;;;;;;;;;;;;;;;;;;5130382;27;19924;-45
2023/10/28 11:20:00;;;;;;;;;;;;;;;;;;5130269;27;19927;-46
2023/10/28 11:22:25;;;;;;;;;;;;;;;;;;5124632;27;20272;-43
2023/10/28 11:24:51;;;;;;;;;;;;;;;;;;5128813;27;19931;-46
2023/10/28 11:27:16;;;;;;;;;;;;;;;;;;5129110;27;19937;-44
2023/10/28 11:29:42;;;;;;;;;;;;;;;;;;5126678;27;20376;-44
2023/10/28 11:32:07;;;;;;;;;;;;;;;;;;5126513;27;20264;-44
2023/10/28 11:34:33;;;;;;;;;;;;;;;;;;5131355;27;19931;-44
2023/10/28 11:36:58;;;;;;;;;;;;;;;;;;5133392;27;19935;-44
2023/10/28 11:39:24;;;;;;;;;;;;;;;;;;5126377;27;20022;-44
2023/10/28 11:41:49;;;;;;;;;;;;;;;;;;5126408;27;19939;-44
2023/10/28 11:44:15;;;;;;;;;;;;;;;;;;5131051;27;20725;-44
2023/10/28 11:46:40;;;;;;;;;;;;;;;;;;5132017;27;19937;-44
2023/10/28 11:49:06;;;;;;;;;;;;;;;;;;5134177;27;19927;-45
2023/10/28 11:51:32;;;;;;;;;;;;;;;;;;5140672;27;19923;-48
2023/10/28 11:53:58;;;;;;;;;;;;;;;;;;5144751;27;19966;-45
2023/10/28 11:56:23;;;;;;;;;;;;;;;;;;5145341;27;20069;-47
2023/10/28 11:58:50;;;;;;;;;;;;;;;;;;5141838;27;19967;-46
2023/10/28 12:01:16;;;;;;;;;;;;;;;;;;5143283;27;19980;-45
2023/10/28 12:03:41;;;;;;;;;;;;;;;;;;5141728;27;19973;-47
2023/10/28 12:06:07;;;;;;;;;;;;;;;;;;5144230;27;19927;-48
2023/10/28 12:08:41;;;;;;;;;;;;;;;;;;5148055;27;19931;-43
2023/10/28 12:11:06;;;;;;;;;;;;;;;;;;5148056;27;19927;-44
2023/10/28 12:13:32;;;;;;;;;;;;;;;;;;5142921;27;19923;-44
2023/10/28 12:15:58;;;;;;;;;;;;;;;;;;5145109;27;20388;-43
2023/10/28 12:18:23;;;;;;;;;;;;;;;;;;5141799;27;19923;-44
2023/10/28 12:20:49;;;;;;;;;;;;;;;;;;5145549;27;19927;-48
2023/10/28 12:23:16;;;;;;;;;;;;;;;;;;5148631;27;20303;-45
2023/10/28 12:25:42;;;;;;;;;;;;;;;;;;5149565;27;19941;-45
2023/10/28 12:28:07;;;;;;;;;;;;;;;;;;5148194;27;19923;-45
2023/10/28 12:30:33;;;;;;;;;;;;;;;;;;5146756;27;19931;-44
2023/10/28 12:32:58;;;;;;;;;;;;;;;;;;5147661;27;20411;-43
2023/10/28 12:35:24;;;;;;;;;;;;;;;;;;5148706;27;20318;-45
2023/10/28 12:37:49;;;;;;;;;;;;;;;;;;5148752;27;20161;-46
2023/10/28 12:40:15;;;;;;;;;;;;;;;;;;5141757;27;19975;-47
2023/10/28 12:42:41;;;;;;;;;;;;;;;;;;5142359;27;19937;-45
2023/10/28 12:45:06;;;;;;;;;;;;;;;;;;5144410;27;19981;-45
2023/10/28 12:47:32;;;;;;;;;;;;;;;;;;5147292;27;20400;-46
2023/10/28 12:49:57;;;;;;;;;;;;;;;;;;5148382;27;20370;-44
2023/10/28 12:52:23;;;;;;;;;;;;;;;;;;5145767;27;20446;-45
2023/10/28 12:54:48;;;;;;;;;;;;;;;;;;5149934;27;19966;-44
2023/10/28 12:57:14;;;;;;;;;;;;;;;;;;5149975;27;19945;-46
2023/10/28 12:59:39;;;;;;;;;;;;;;;;;;5149564;27;20406;-45
2023/10/28 13:02:04;;;;;;;;;;;;;;;;;;5149362;27;19976;-45
2023/10/28 13:04:30;;;;;;;;;;;;;;;;;;5150019;27;20018;-45
2023/10/28 13:06:55;;;;;;;;;;;;;;;;;;5150130;27;20018;-44
2023/10/28 13:09:23;;;;;;;;;;;;;;;;;;5148061;27;19958;-47
2023/10/28 13:11:48;;;;;;;;;;;;;;;;;;5147584;27;19966;-44
2023/10/28 13:14:18;;;;;;;;;;;;;;;;;;5147714;27;20013;-44
2023/10/28 13:16:43;;;;;;;;;;;;;;;;;;5131448;27;20280;-45
2023/10/28 13:19:09;;;;;;;;;;;;;;;;;;5141883;27;20364;-45
2023/10/28 13:21:34;;;;;;;;;;;;;;;;;;5149358;27;19940;-44
2023/10/28 13:24:00;;;;;;;;;;;;;;;;;;5150121;27;19927;-45
2023/10/28 13:26:25;;;;;;;;;;;;;;;;;;5150246;27;19923;-46
2023/10/28 13:28:51;;;;;;;;;;;;;;;;;;5149078;27;19923;-45
2023/10/28 13:31:16;;;;;;;;;;;;;;;;;;5149406;27;19934;-44
2023/10/28 13:33:42;;;;;;;;;;;;;;;;;;5149294;27;19936;-44
2023/10/28 13:36:07;;;;;;;;;;;;;;;;;;5149761;27;19974;-45
2023/10/28 13:38:33;;;;;;;;;;;;;;;;;;5149130;27;19930;-45
2023/10/28 13:40:59;;;;;;;;;;;;;;;;;;5147260;27;19999;-46
2023/10/28 13:43:25;;;;;;;;;;;;;;;;;;5161406;27;20290;-45
2023/10/28 13:45:51;;;;;;;;;;;;;;;;;;5170376;27;19926;-44
2023/10/28 13:48:17;;;;;;;;;;;;;;;;;;5158135;27;19951;-45
2023/10/28 13:50:42;;;;;;;;;;;;;;;;;;5128917;28;19980;-43
2023/10/28 13:53:08;;;;;;;;;;;;;;;;;;5144653;27;20021;-45
2023/10/28 13:55:33;;;;;;;;;;;;;;;;;;5149142;27;19927;-46
2023/10/28 13:57:59;;;;;;;;;;;;;;;;;;5149361;27;20351;-46
2023/10/28 14:00:24;;;;;;;;;;;;;;;;;;5149343;27;20022;-44
2023/10/28 14:02:51;;;;;;;;;;;;;;;;;;5148718;27;20052;-46
2023/10/28 14:05:17;;;;;;;;;;;;;;;;;;5148006;27;19927;-46
2023/10/28 14:07:43;;;;;;;;;;;;;;;;;;5148439;27;20293;-45
2023/10/28 14:10:09;;;;;;;;;;;;;;;;;;5148400;27;19996;-45
2023/10/28 14:12:36;;;;;;;;;;;;;;;;;;5148244;27;20287;-44
2023/10/28 14:15:01;;;;;;;;;;;;;;;;;;5146717;27;19923;-46
2023/10/28 14:17:27;;;;;;;;;;;;;;;;;;5148732;27;19958;-45
2023/10/28 14:19:52;;;;;;;;;;;;;;;;;;5129151;27;19923;-44
2023/10/28 14:22:22;;;;;;;;;;;;;;;;;;5146360;27;19923;-45
2023/10/28 14:24:47;;;;;;;;;;;;;;;;;;5149366;27;20404;-44
2023/10/28 14:27:13;;;;;;;;;;;;;;;;;;5148848;27;19923;-45
2023/10/28 14:29:39;;;;;;;;;;;;;;;;;;5131167;27;19927;-45
2023/10/28 14:32:06;;;;;;;;;;;;;;;;;;5132555;27;19954;-47
2023/10/28 14:34:31;;;;;;;;;;;;;;;;;;5148622;27;20309;-45
2023/10/28 14:36:56;;;;;;;;;;;;;;;;;;5149039;27;19970;-44
2023/10/28 14:39:22;;;;;;;;;;;;;;;;;;5140797;27;20108;-46
2023/10/28 14:41:47;;;;;;;;;;;;;;;;;;5138616;27;20404;-47
2023/10/28 14:44:14;;;;;;;;;;;;;;;;;;5152539;27;20270;-48
2023/10/28 14:46:39;;;;;;;;;;;;;;;;;;5152641;27;19927;-45
2023/10/28 14:49:05;;;;;;;;;;;;;;;;;;5151442;27;19962;-44
2023/10/28 14:51:30;;;;;;;;;;;;;;;;;;5151751;27;19961;-45
2023/10/28 14:53:56;;;;;;;;;;;;;;;;;;5151085;27;20379;-45
2023/10/28 14:56:22;;;;;;;;;;;;;;;;;;5150216;27;19955;-46
2023/10/28 14:58:47;;;;;;;;;;;;;;;;;;5151942;27;20192;-44
2023/10/28 15:01:13;;;;;;;;;;;;;;;;;;5151831;27;20261;-44
2023/10/28 15:03:38;;;;;;;;;;;;;;;;;;5151338;27;19933;-44
2023/10/28 15:06:04;;;;;;;;;;;;;;;;;;5152113;27;19977;-45
2023/10/28 15:08:30;;;;;;;;;;;;;;;;;;5150917;27;20430;-46
2023/10/28 15:10:56;;;;;;;;;;;;;;;;;;5152399;27;19936;-44
2023/10/28 15:13:21;;;;;;;;;;;;;;;;;;5150747;27;19923;-44
2023/10/28 15:15:46;;;;;;;;;;;;;;;;;;5151527;27;19923;-46
2023/10/28 15:18:12;;;;;;;;;;;;;;;;;;5150968;27;20352;-44
2023/10/28 15:20:38;;;;;;;;;;;;;;;;;;5151998;27;19966;-45
2023/10/28 15:23:05;;;;;;;;;;;;;;;;;;5150420;27;20014;-44
2023/10/28 15:25:30;;;;;;;;;;;;;;;;;;5152272;27;19956;-44
2023/10/28 15:27:55;;;;;;;;;;;;;;;;;;5148828;27;19931;-44
2023/10/28 15:30:21;;;;;;;;;;;;;;;;;;5131090;28;19982;-45
2023/10/28 15:32:46;;;;;;;;;;;;;;;;;;5138712;27;19923;-45
2023/10/28 15:35:12;;;;;;;;;;;;;;;;;;5151454;27;19972;-45
2023/10/28 15:37:37;;;;;;;;;;;;;;;;;;5149984;27;19923;-44
2023/10/28 15:40:03;;;;;;;;;;;;;;;;;;5165086;27;19929;-45
2023/10/28 15:42:28;;;;;;;;;;;;;;;;;;5161777;27;20466;-43
2023/10/28 15:44:54;;;;;;;;;;;;;;;;;;5170167;27;20315;-44
2023/10/28 15:47:19;;;;;;;;;;;;;;;;;;5172065;27;19943;-45
2023/10/28 15:49:45;;;;;;;;;;;;;;;;;;5134311;27;20014;-46
2023/10/28 15:52:10;;;;;;;;;;;;;;;;;;5132539;27;19970;-44
2023/10/28 15:54:36;;;;;;;;;;;;;;;;;;5148696;27;19927;-44
2023/10/28 15:57:01;;;;;;;;;;;;;;;;;;5150742;27;19959;-47
2023/10/28 15:59:27;;;;;;;;;;;;;;;;;;5150936;27;20111;-46
2023/10/28 16:01:52;;;;;;;;;;;;;;;;;;5151182;27;20429;-44
2023/10/28 16:04:17;;;;;;;;;;;;;;;;;;5150757;27;20056;-45
2023/10/28 16:06:45;;;;;;;;;;;;;;;;;;5151585;27;19961;-44
2023/10/28 16:09:11;;;;;;;;;;;;;;;;;;5137263;27;19931;-43
2023/10/28 16:11:36;;;;;;;;;;;;;;;;;;5130604;28;19930;-44
2023/10/28 16:14:01;;;;;;;;;;;;;;;;;;5147350;27;19972;-45
2023/10/28 16:16:28;;;;;;;;;;;;;;;;;;5150171;27;20440;-45
2023/10/28 16:18:54;;;;;;;;;;;;;;;;;;5150874;27;19986;-44
2023/10/28 16:21:20;;;;;;;;;;;;;;;;;;5150572;27;19969;-45
2023/10/28 16:23:48;;;;;;;;;;;;;;;;;;5150249;27;19958;-44
2023/10/28 16:26:13;;;;;;;;;;;;;;;;;;5151029;27;19962;-44
2023/10/28 16:28:38;;;;;;;;;;;;;;;;;;5149653;27;19930;-44
2023/10/28 16:31:06;;;;;;;;;;;;;;;;;;5150530;27;20022;-45
2023/10/28 16:33:32;;;;;;;;;;;;;;;;;;5149948;27;19973;-45
2023/10/28 16:35:57;;;;;;;;;;;;;;;;;;5150582;27;20326;-44